Time;durP1;ratioP1;P1;durP2;ratioP2;P2;SDS_P1;SDS_P2;PMS_P1;PMS_P2;Temp;Humidity;BMP_temperature;BMP_pressure;BME280_temperature;BME280_humidity;BME280_pressure;Samples;Min_cycle;Max_cycle;Signal;HPM_P1;HPM_P2
2021/10/25 00:01:00;;;;;;;2.20;1.20;;;;;;;5.51;50.82;100670.31;3384046;29;20036;-69
2021/10/25 00:02:44;;;;;;;2.50;1.48;;;;;;;5.49;50.94;100686.31;3384369;29;20506;-69
2021/10/25 00:04:26;;;;;;;2.25;1.25;;;;;;;5.42;51.07;100678.09;3384248;29;20071;-70
2021/10/25 00:06:07;;;;;;;1.55;1.08;;;;;;;5.46;51.01;100683.94;3383450;29;20471;-71
2021/10/25 00:07:47;;;;;;;3.30;1.42;;;;;;;5.44;51.01;100686.72;3383897;29;20055;-70
2021/10/25 00:09:28;;;;;;;1.38;1.02;;;;;;;5.43;51.15;100686.88;3382681;29;20040;-71
2021/10/25 00:11:10;;;;;;;1.30;0.90;;;;;;;5.41;51.20;100689.63;3387150;29;20043;-71
2021/10/25 00:12:52;;;;;;;3.88;1.08;;;;;;;5.39;51.07;100688.09;3382625;29;20036;-70
2021/10/25 00:14:35;;;;;;;1.92;1.35;;;;;;;5.39;51.32;100688.09;3382728;29;20044;-71
2021/10/25 00:16:16;;;;;;;2.72;1.50;;;;;;;5.33;51.27;100681.56;3383003;29;20048;-71
2021/10/25 00:17:57;;;;;;;1.77;1.30;;;;;;;5.32;51.39;100681.69;3383317;29;20526;-69
2021/10/25 00:19:40;;;;;;;1.23;1.00;;;;;;;5.29;51.54;100682.78;3382177;29;20068;-69
2021/10/25 00:21:20;;;;;;;;;;;;;;;5.41;51.23;100686.16;3383209;29;20048;-69
2021/10/25 00:23:03;;;;;;;3.28;1.92;;;;;;;5.32;51.30;100687.81;3382405;29;20449;-71
2021/10/25 00:24:45;;;;;;;1.83;1.55;;;;;;;5.28;51.50;100686.41;3382395;29;20403;-70
2021/10/25 00:26:26;;;;;;;7.65;2.13;;;;;;;5.24;51.46;100685.03;3382787;29;20405;-69
2021/10/25 00:28:11;;;;;;;4.63;1.77;;;;;;;5.21;51.80;100691.44;3382735;29;20079;-71
2021/10/25 00:29:54;;;;;;;2.20;1.80;;;;;;;5.22;51.74;100685.16;3380029;29;20134;-69
2021/10/25 00:31:35;;;;;;;3.55;1.30;;;;;;;5.18;51.63;100696.94;3378520;29;20054;-70
2021/10/25 00:33:17;;;;;;;5.40;2.20;;;;;;;5.20;51.72;100700.31;3381444;29;20511;-70
2021/10/25 00:34:58;;;;;;;3.08;1.02;;;;;;;5.19;51.81;100698.66;3382268;29;20492;-69
2021/10/25 00:36:40;;;;;;;2.08;1.58;;;;;;;5.19;51.80;100703.94;3381633;29;20047;-71
2021/10/25 00:38:21;;;;;;;3.72;1.17;;;;;;;5.19;51.63;100709.22;3382373;29;20139;-69
2021/10/25 00:40:03;;;;;;;2.92;1.42;;;;;;;5.15;51.80;100710.44;3381482;29;20052;-69
2021/10/25 00:41:44;;;;;;;5.10;1.55;;;;;;;5.14;51.79;100703.50;3384321;29;20503;-69
2021/10/25 00:43:25;;;;;;;4.53;1.20;;;;;;;5.16;51.92;100701.56;3387417;29;20032;-71
2021/10/25 00:45:06;;;;;;;1.95;1.40;;;;;;;5.15;51.90;100702.50;3388646;29;20056;-69
2021/10/25 00:46:49;;;;;;;2.83;1.23;;;;;;;5.14;52.14;100706.13;3383821;29;20076;-69
2021/10/25 00:48:30;;;;;;;3.03;1.40;;;;;;;5.11;52.03;100702.91;3380529;29;20487;-71
2021/10/25 00:50:15;;;;;;;2.08;1.50;;;;;;;5.07;52.11;100702.34;3382646;29;21693;-70
2021/10/25 00:51:56;;;;;;;2.72;1.20;;;;;;;5.08;51.96;100705.81;3382678;29;20044;-69
2021/10/25 00:53:37;;;;;;;3.03;1.02;;;;;;;5.06;52.15;100708.63;3383993;29;20503;-68
2021/10/25 00:55:18;;;;;;;1.83;1.63;;;;;;;5.07;52.31;100710.28;3383255;29;20075;-69
2021/10/25 00:56:59;;;;;;;5.53;3.28;;;;;;;5.06;52.32;100703.34;3383189;29;20308;-69
2021/10/25 00:58:40;;;;;;;1.33;1.23;;;;;;;5.02;52.19;100707.19;3383106;29;20135;-70
2021/10/25 01:00:24;;;;;;;2.88;1.33;;;;;;;5.03;52.27;100712.38;3381826;29;20039;-70
2021/10/25 01:02:05;;;;;;;2.20;1.45;;;;;;;5.00;52.33;100709.13;3382610;29;20056;-69
2021/10/25 01:03:46;;;;;;;2.42;1.23;;;;;;;5.01;52.31;100718.75;3381885;29;20040;-69
2021/10/25 01:05:31;;;;;;;4.53;1.75;;;;;;;4.95;52.38;100711.34;3379992;29;20504;-70
2021/10/25 01:07:13;;;;;;;3.55;1.50;;;;;;;4.93;52.67;100726.47;3383567;29;20099;-70
2021/10/25 01:08:56;;;;;;;2.10;1.42;;;;;;;4.95;52.65;100729.81;3383663;29;22133;-69
2021/10/25 01:10:38;;;;;;;2.88;1.50;;;;;;;4.95;52.93;100732.47;3381879;29;20047;-69
2021/10/25 01:12:20;;;;;;;4.13;1.52;;;;;;;4.91;52.53;100725.78;3380674;29;20064;-69
2021/10/25 01:14:02;;;;;;;2.35;1.27;;;;;;;4.95;52.48;100748.31;3376485;29;20568;-71
2021/10/25 01:15:48;;;;;;;3.58;1.98;;;;;;;4.92;52.54;100740.66;3380011;29;20091;-71
2021/10/25 01:17:29;;;;;;;2.55;1.63;;;;;;;4.90;52.75;100747.88;3380295;29;20389;-71
2021/10/25 01:19:11;;;;;;;7.13;1.80;;;;;;;4.89;52.92;100743.56;3381873;29;20040;-71
2021/10/25 01:20:54;;;;;;;1.75;1.25;;;;;;;4.88;52.85;100747.16;3379510;29;20048;-70
2021/10/25 01:22:39;;;;;;;3.72;1.92;;;;;;;4.88;52.81;100750.66;3382581;29;20055;-69
2021/10/25 01:24:20;;;;;;;2.15;1.90;;;;;;;4.87;52.70;100745.50;3391429;29;20070;-70
2021/10/25 01:26:03;;;;;;;1.45;1.13;;;;;;;4.89;52.93;100743.56;3378878;29;20048;-70
2021/10/25 01:27:44;;;;;;;5.28;1.70;;;;;;;4.88;52.92;100748.03;3381126;29;20067;-70
2021/10/25 01:29:25;;;;;;;2.50;1.42;;;;;;;4.86;52.84;100749.97;3380372;29;20099;-70
2021/10/25 01:31:06;;;;;;;4.88;2.03;;;;;;;4.86;52.98;100752.59;3368740;29;20079;-70
2021/10/25 01:32:50;;;;;;;4.03;1.98;;;;;;;4.86;52.83;100746.47;3380351;29;20539;-69
2021/10/25 01:34:32;;;;;;;3.97;2.45;;;;;;;4.87;53.00;100758.72;3378751;29;20518;-70
2021/10/25 01:36:15;;;;;;;3.42;1.90;;;;;;;4.86;52.82;100744.66;3378056;29;20051;-69
2021/10/25 01:37:58;;;;;;;3.10;1.45;;;;;;;4.86;52.98;100747.31;3376267;29;20055;-69
2021/10/25 01:39:39;;;;;;;3.03;1.58;;;;;;;4.86;52.96;100746.47;3379148;29;20048;-68
2021/10/25 01:41:22;;;;;;;3.60;1.92;;;;;;;4.84;52.91;100745.78;3382086;29;20079;-71
2021/10/25 01:43:03;;;;;;;2.28;1.63;;;;;;;4.82;53.02;100752.00;3368773;29;20048;-68
2021/10/25 01:44:44;;;;;;;3.05;1.67;;;;;;;4.82;53.14;100754.66;3377117;29;20511;-69
2021/10/25 01:46:25;;;;;;;4.60;2.05;;;;;;;4.80;53.17;100753.09;3381983;29;20135;-69
2021/10/25 01:48:06;;;;;;;1.90;1.50;;;;;;;4.79;53.19;100760.19;3382853;29;20572;-69
2021/10/25 01:49:48;;;;;;;8.15;1.90;;;;;;;4.79;53.10;100762.84;3381299;29;20047;-69
2021/10/25 01:51:29;;;;;;;2.17;1.33;;;;;;;4.78;53.05;100769.09;3377491;29;20484;-69
2021/10/25 01:53:10;;;;;;;3.08;2.33;;;;;;;4.76;53.12;100765.75;3381341;29;20355;-70
2021/10/25 01:54:59;;;;;;;2.28;1.35;;;;;;;4.75;53.07;100769.38;3380742;29;20079;-70
2021/10/25 01:56:41;;;;;;;3.03;1.88;;;;;;;4.74;53.14;100778.22;3389336;29;20055;-70
2021/10/25 01:58:22;;;;;;;1.85;1.73;;;;;;;4.73;53.16;100776.56;3377888;29;20036;-69
2021/10/25 02:00:05;;;;;;;2.65;1.60;;;;;;;4.72;53.10;100785.44;3379298;29;20076;-70
2021/10/25 02:01:55;;;;;;;2.97;1.77;;;;;;;4.70;53.29;100776.84;3380392;29;20040;-70
2021/10/25 02:03:36;;;;;;;2.35;1.42;;;;;;;4.67;53.11;100776.25;3378465;29;20195;-70
2021/10/25 02:05:30;;;;;;;5.38;1.75;;;;;;;4.71;53.44;100786.41;3371616;29;20068;-71
2021/10/25 02:07:12;;;;;;;2.10;1.33;;;;;;;4.69;53.13;100785.72;3389655;29;20048;-70
2021/10/25 02:08:53;;;;;;;2.20;1.40;;;;;;;4.68;53.41;100791.13;3382274;29;20424;-70
2021/10/25 02:10:37;;;;;;;1.92;1.55;;;;;;;4.68;53.34;100794.59;3396559;29;20044;-73
2021/10/25 02:12:22;;;;;;;4.30;1.80;;;;;;;4.65;53.60;100794.88;3386969;29;20051;-71
2021/10/25 02:14:05;;;;;;;2.72;1.52;;;;;;;4.67;53.07;100802.66;3386553;29;20111;-70
2021/10/25 02:15:47;;;;;;;3.90;1.20;;;;;;;4.65;53.40;100794.88;3386094;29;20044;-71
2021/10/25 02:17:32;;;;;;;2.20;2.00;;;;;;;4.67;53.53;100805.28;3385964;29;20401;-71
2021/10/25 02:19:16;;;;;;;4.32;2.38;;;;;;;4.66;53.50;100815.00;3380088;29;20044;-70
2021/10/25 02:21:10;;;;;;;3.50;2.63;;;;;;;4.66;53.76;100822.09;3382779;29;20127;-70
2021/10/25 02:22:52;;;;;;;3.08;2.15;;;;;;;4.64;53.64;100814.31;3380336;29;20063;-71
2021/10/25 02:24:35;;;;;;;2.38;1.75;;;;;;;4.65;53.51;100821.28;3378430;29;20674;-70
2021/10/25 02:26:18;;;;;;;4.70;1.70;;;;;;;4.64;53.63;100821.38;3386481;29;20047;-70
2021/10/25 02:28:01;;;;;;;2.42;1.85;;;;;;;4.65;53.70;100825.72;3373544;29;20063;-71
2021/10/25 02:29:42;;;;;;;3.72;1.50;;;;;;;4.62;53.67;100821.53;3378876;29;20049;-70
2021/10/25 02:31:28;;;;;;;7.55;2.88;;;;;;;4.65;53.62;100826.56;3381414;29;20183;-69
2021/10/25 02:33:08;;;;;;;3.17;1.45;;;;;;;4.63;53.79;100828.47;3388077;29;20047;-70
2021/10/25 02:34:50;;;;;;;1.85;1.42;;;;;;;4.59;53.78;100821.78;3383162;29;20044;-70
2021/10/25 02:36:33;;;;;;;2.97;1.58;;;;;;;4.59;53.96;100820.00;3382286;29;20040;-71
2021/10/25 02:38:14;;;;;;;1.70;1.60;;;;;;;4.59;53.76;100822.63;3390246;29;20135;-70
2021/10/25 02:39:59;;;;;;;2.53;1.90;;;;;;;4.59;53.85;100819.13;3402152;29;20044;-71
2021/10/25 02:41:41;;;;;;;1.80;1.63;;;;;;;4.60;53.84;100820.81;3401772;29;20044;-69
2021/10/25 02:43:22;;;;;;;2.55;2.15;;;;;;;4.58;53.88;100814.81;3392872;29;20044;-71
2021/10/25 02:45:03;;;;;;;3.70;1.80;;;;;;;4.60;53.70;100818.19;3390004;29;20534;-70
2021/10/25 02:46:45;;;;;;;3.30;2.05;;;;;;;4.58;53.91;100817.47;3387148;29;20432;-70
2021/10/25 02:48:27;;;;;;;3.83;2.13;;;;;;;4.52;53.82;100810.91;3389045;29;20139;-72
2021/10/25 02:50:08;;;;;;;3.13;2.05;;;;;;;4.55;53.91;100821.19;3376810;29;20521;-71
2021/10/25 02:51:50;;;;;;;5.50;2.30;;;;;;;4.55;53.89;100825.66;3388023;29;20062;-70
2021/10/25 02:53:32;;;;;;;1.95;1.60;;;;;;;4.55;53.66;100818.56;3390003;29;20487;-69
2021/10/25 02:55:13;;;;;;;3.95;2.40;;;;;;;4.57;53.93;100826.38;3389860;29;20123;-70
2021/10/25 02:56:55;;;;;;;2.33;2.13;;;;;;;4.57;53.87;100829.84;3363486;29;20127;-69
2021/10/25 02:58:41;;;;;;;3.80;1.98;;;;;;;4.55;53.83;100825.66;3380349;29;20037;-69
2021/10/25 03:00:22;;;;;;;1.70;1.60;;;;;;;4.53;53.92;100838.13;3385471;29;20140;-71
2021/10/25 03:02:03;;;;;;;2.88;2.03;;;;;;;4.51;53.89;100835.59;3385061;29;20440;-70
2021/10/25 03:03:43;;;;;;;4.72;1.70;;;;;;;4.53;54.00;100833.69;3387947;29;20044;-71
2021/10/25 03:05:24;;;;;;;16.33;2.10;;;;;;;4.53;53.88;100832.84;3380802;29;20053;-71
2021/10/25 03:07:05;;;;;;;3.67;1.92;;;;;;;4.50;54.01;100828.66;3389943;29;20130;-70
2021/10/25 03:08:52;;;;;;;5.80;2.58;;;;;;;4.52;54.02;100837.28;3389216;29;20063;-69
2021/10/25 03:10:33;;;;;;;2.55;2.28;;;;;;;4.50;53.85;100833.09;3389943;29;20562;-69
2021/10/25 03:12:13;;;;;;;3.38;2.55;;;;;;;4.52;53.82;100836.47;3389467;29;20043;-70
2021/10/25 03:13:55;;;;;;;3.20;1.90;;;;;;;4.51;53.95;100834.78;3389438;29;20071;-69
2021/10/25 03:15:41;;;;;;;2.80;2.40;;;;;;;4.50;53.85;100835.75;3395608;29;20136;-71
2021/10/25 03:17:25;;;;;;;5.65;2.05;;;;;;;4.48;53.86;100833.22;3377193;29;20048;-69
2021/10/25 03:19:17;;;;;;;4.10;2.42;;;;;;;4.46;53.98;100835.16;3375450;29;20049;-69
2021/10/25 03:20:59;;;;;;;3.75;2.38;;;;;;;4.46;54.01;100834.31;3382427;29;20515;-71
2021/10/25 03:22:40;;;;;;;4.00;2.20;;;;;;;4.45;54.08;100835.28;3386407;29;20032;-70
2021/10/25 03:24:21;;;;;;;3.80;2.40;;;;;;;4.44;53.87;100839.75;3386740;29;20523;-70
2021/10/25 03:26:03;;;;;;;3.63;2.60;;;;;;;4.43;54.13;100839.84;3386354;29;20111;-70
2021/10/25 03:27:44;;;;;;;6.78;2.92;;;;;;;4.42;54.07;100840.81;3384999;29;20135;-71
2021/10/25 03:29:25;;;;;;;3.72;2.38;;;;;;;4.38;53.92;100842.88;3383226;29;20048;-69
2021/10/25 03:31:09;;;;;;;3.10;2.50;;;;;;;4.42;54.07;100849.56;3385870;29;20127;-70
2021/10/25 03:32:51;;;;;;;6.85;2.53;;;;;;;4.42;53.97;100852.22;3383560;29;20127;-70
2021/10/25 03:34:52;;;;;;;3.00;2.28;;;;;;;4.43;54.13;100863.59;3377986;29;20200;-70
2021/10/25 03:36:34;;;;;;;3.35;2.50;;;;;;;4.41;54.07;100855.81;3385202;29;20575;-70
2021/10/25 03:38:17;;;;;;;2.83;2.38;;;;;;;4.40;54.00;100853.31;3386687;29;20048;-72
2021/10/25 03:39:58;;;;;;;;;;;;;;;4.49;53.77;100857.81;3389256;29;20595;-71
2021/10/25 03:41:42;;;;;;;2.50;2.28;;;;;;;4.38;53.77;100859.53;3386207;29;20001;-69
2021/10/25 03:43:27;;;;;;;3.55;2.10;;;;;;;4.37;53.81;100867.59;3388106;29;20046;-72
2021/10/25 03:48:43;;;;;;;2.22;2.03;;;;;;;4.30;54.12;100858.50;3391337;29;20039;-70
2021/10/25 03:50:32;;;;;;;2.50;2.30;;;;;;;4.30;54.09;100864.59;3388649;29;20048;-70
2021/10/25 03:52:36;;;;;;;2.72;2.38;;;;;;;4.32;54.19;100857.41;3375642;29;20048;-70
2021/10/25 03:54:26;;;;;;;2.90;2.13;;;;;;;4.31;54.03;100861.03;3376634;29;20045;-70
2021/10/25 04:13:47;;;;;;;2.80;2.47;;;;;;;4.27;54.26;100866.66;3389429;29;20098;-72
2021/10/25 04:29:49;;;;;;;3.28;2.60;;;;;;;4.24;54.55;100875.66;3388719;29;20178;-70
2021/10/25 04:31:30;;;;;;;4.20;2.78;;;;;;;4.22;54.56;100879.38;3387776;29;20040;-70
2021/10/25 04:33:14;;;;;;;4.68;2.60;;;;;;;4.27;54.55;100890.41;3388057;29;20623;-71
2021/10/25 04:35:04;;;;;;;5.85;3.28;;;;;;;4.28;54.50;100887.63;3386173;29;20040;-71
2021/10/25 04:37:04;;;;;;;2.58;2.20;;;;;;;4.26;54.42;100879.03;3388903;29;20436;-71
2021/10/25 04:38:54;;;;;;;4.40;2.28;;;;;;;4.32;54.38;100894.34;3387560;29;20079;-72
2021/10/25 04:40:35;;;;;;;2.78;2.10;;;;;;;4.35;54.56;100898.53;3388387;29;20063;-71
2021/10/25 04:42:17;;;;;;;7.85;2.72;;;;;;;4.34;54.33;100897.72;3401084;29;20043;-72
2021/10/25 04:43:57;;;;;;;5.37;2.93;;;;;;;4.34;54.58;100897.72;3387785;29;20503;-71
2021/10/25 04:45:39;;;;;;;4.05;2.53;;;;;;;4.35;54.75;100896.72;3385465;29;20107;-69
2021/10/25 04:47:20;;;;;;;3.33;2.42;;;;;;;4.37;54.47;100896.63;3385865;29;20043;-70
2021/10/25 04:49:01;;;;;;;10.40;2.67;;;;;;;4.38;54.44;100904.41;3384776;29;20048;-70
2021/10/25 04:51:02;;;;;;;4.55;2.65;;;;;;;4.43;54.52;100903.19;3388290;29;20083;-70
2021/10/25 04:53:02;;;;;;;4.45;2.35;;;;;;;4.45;54.28;100909.19;3388552;29;20051;-71
2021/10/25 04:54:43;;;;;;;4.07;2.35;;;;;;;4.48;54.38;100903.66;3374935;29;20055;-70
2021/10/25 04:56:24;;;;;;;6.07;2.08;;;;;;;4.49;54.59;100905.31;3372611;29;20096;-71
2021/10/25 04:58:05;;;;;;;4.53;2.50;;;;;;;4.52;54.53;100915.66;3385573;29;20067;-70
2021/10/25 04:59:46;;;;;;;5.25;2.35;;;;;;;4.53;54.25;100912.03;3389104;29;20051;-71
2021/10/25 05:01:27;;;;;;;6.35;2.67;;;;;;;4.58;54.41;100917.78;3384567;29;20341;-71
2021/10/25 05:03:09;;;;;;;;;;;;;;;4.72;54.18;100922.75;3372322;29;20504;-69
2021/10/25 05:04:50;;;;;;;3.55;2.63;;;;;;;4.69;54.01;100917.75;3372887;29;19915;-70
2021/10/25 05:06:31;;;;;;;6.75;2.83;;;;;;;4.68;54.04;100921.34;3372228;29;20060;-71
2021/10/25 05:08:11;;;;;;;4.63;2.63;;;;;;;4.71;54.14;100922.91;3385685;29;20040;-70
2021/10/25 05:09:52;;;;;;;4.90;2.70;;;;;;;4.72;54.03;100922.75;3388724;29;20416;-70
2021/10/25 05:11:33;;;;;;;7.78;2.25;;;;;;;4.74;54.30;100926.13;3400675;29;20538;-70
2021/10/25 05:13:14;;;;;;;6.85;3.95;;;;;;;4.77;53.85;100930.31;3387692;29;20209;-72
2021/10/25 05:14:55;;;;;;;4.75;3.22;;;;;;;4.80;54.03;100930.91;3384427;29;20044;-71
2021/10/25 05:16:36;;;;;;;9.38;2.70;;;;;;;4.81;54.05;100940.50;3384691;29;20036;-71
2021/10/25 05:18:21;;;;;;;5.93;3.40;;;;;;;4.84;54.14;100946.50;3388528;29;20057;-71
2021/10/25 05:20:02;;;;;;;2.97;2.65;;;;;;;4.86;54.08;100941.94;3400078;29;20043;-70
2021/10/25 05:21:48;;;;;;;3.50;2.63;;;;;;;4.91;54.00;100945.88;3386866;29;20595;-72
2021/10/25 05:23:28;;;;;;;3.20;2.90;;;;;;;4.94;53.98;100948.25;3384619;29;20091;-72
2021/10/25 05:25:09;;;;;;;2.67;2.30;;;;;;;4.98;53.94;100954.09;3387706;29;20063;-71
2021/10/25 05:26:50;;;;;;;3.28;2.10;;;;;;;5.02;53.85;100956.38;3386803;29;20036;-72
2021/10/25 05:28:31;;;;;;;3.90;2.50;;;;;;;5.14;53.75;100951.91;3383799;29;20530;-71
2021/10/25 05:30:11;;;;;;;3.78;2.55;;;;;;;5.23;53.41;100948.47;3384787;29;20506;-71
2021/10/25 05:31:52;;;;;;;4.63;2.45;;;;;;;5.53;53.17;100946.84;3397825;29;20055;-71
2021/10/25 05:33:33;;;;;;;4.93;2.00;;;;;;;5.76;52.65;100954.63;3387321;29;20044;-71
2021/10/25 05:35:14;;;;;;;4.80;2.13;;;;;;;5.94;52.40;100950.41;3371888;29;20056;-71
2021/10/25 05:36:55;;;;;;;2.30;2.10;;;;;;;5.99;52.28;100952.63;3395531;29;20052;-69
2021/10/25 05:38:37;;;;;;;4.57;2.78;;;;;;;6.02;52.10;100955.03;3386796;29;20421;-71
2021/10/25 05:40:20;;;;;;;3.30;2.42;;;;;;;6.02;52.00;100949.75;3384380;29;20055;-71
2021/10/25 05:42:09;;;;;;;7.85;2.70;;;;;;;6.05;52.08;100960.91;3374980;29;20425;-71
2021/10/25 05:43:51;;;;;;;4.05;2.75;;;;;;;6.09;52.01;100964.09;3377319;29;20049;-72
2021/10/25 05:45:32;;;;;;;5.70;2.50;;;;;;;6.24;51.73;100951.34;3388539;29;20048;-70
2021/10/25 05:47:14;;;;;;;3.25;2.47;;;;;;;6.66;51.41;100952.00;3387289;29;20094;-72
2021/10/25 05:48:57;;;;;;;5.18;2.85;;;;;;;6.94;50.83;100945.03;3384531;29;20055;-72
2021/10/25 05:50:38;;;;;;;4.75;2.50;;;;;;;7.36;50.28;100947.34;3387076;29;20036;-69
2021/10/25 05:52:18;;;;;;;2.90;2.60;;;;;;;7.80;49.76;100955.59;3400344;29;20059;-70
2021/10/25 05:54:02;;;;;;;9.10;2.90;;;;;;;8.25;49.08;100952.19;3390967;29;20452;-71
2021/10/25 05:55:45;;;;;;;2.72;2.50;;;;;;;8.43;48.83;100957.56;3386709;29;22178;-70
2021/10/25 05:57:27;;;;;;;4.22;2.78;;;;;;;8.50;48.47;100961.31;3398032;29;20115;-69
2021/10/25 05:59:08;;;;;;;2.78;2.58;;;;;;;8.74;47.94;100960.72;3390692;29;20048;-70
2021/10/25 06:00:53;;;;;;;7.45;2.60;;;;;;;9.03;47.63;100959.63;3399620;29;20032;-71
2021/10/25 06:02:55;;;;;;;2.60;2.40;;;;;;;9.22;46.63;100949.84;3386599;29;20139;-71
2021/10/25 06:04:37;;;;;;;4.38;2.40;;;;;;;9.27;46.91;100955.53;3384724;29;20048;-73
2021/10/25 06:06:34;;;;;;;4.18;2.67;;;;;;;9.31;46.19;100951.56;3388048;29;20048;-71
2021/10/25 06:08:15;;;;;;;2.58;1.90;;;;;;;9.44;46.00;100957.28;3389868;29;20055;-72
2021/10/25 06:09:57;;;;;;;5.17;3.20;;;;;;;9.54;45.75;100962.53;3379271;29;20056;-71
2021/10/25 06:11:45;;;;;;;6.43;2.65;;;;;;;9.63;45.40;100966.06;3384544;29;21714;-71
2021/10/25 06:15:17;;;;;;;6.45;2.50;;;;;;;9.74;44.87;100968.47;3389049;29;20040;-72
2021/10/25 06:16:59;;;;;;;2.63;2.42;;;;;;;9.84;44.70;100966.53;3400789;29;20422;-71
2021/10/25 06:18:41;;;;;;;3.63;2.17;;;;;;;9.87;44.59;100968.88;3404005;29;20051;-72
2021/10/25 06:20:25;;;;;;;5.80;2.78;;;;;;;9.84;44.48;100958.56;3397428;29;20470;-71
2021/10/25 06:22:07;;;;;;;4.00;3.13;;;;;;;9.85;44.56;100967.38;3399846;29;20110;-69
2021/10/25 06:23:48;;;;;;;4.03;2.55;;;;;;;9.76;44.36;100971.81;3389763;29;20580;-68
2021/10/25 06:25:41;;;;;;;;;;;;;;;9.85;44.89;100970.88;3389091;29;20055;-71
2021/10/25 06:27:28;;;;;;;3.80;2.08;;;;;;;9.64;44.74;100978.41;3385747;29;19950;-71
2021/10/25 06:29:10;;;;;;;4.88;2.13;;;;;;;9.46;44.32;100968.63;3381404;29;20044;-71
2021/10/25 06:31:00;;;;;;;5.85;2.58;;;;;;;9.37;44.36;100978.38;3382722;29;20040;-70
2021/10/25 06:33:03;;;;;;;4.90;2.60;;;;;;;9.20;44.73;100978.41;3390277;29;20532;-71
2021/10/25 06:35:26;;;;;;;5.70;2.50;;;;;;;9.04;44.92;100974.63;3375919;29;20044;-72
2021/10/25 06:37:57;;;;;;;4.97;2.53;;;;;;;8.95;45.00;100972.88;3370352;29;20049;-72
2021/10/25 06:39:39;;;;;;;6.90;3.53;;;;;;;8.81;45.14;100976.91;3376276;29;20548;-72
2021/10/25 06:41:21;;;;;;;5.85;2.80;;;;;;;8.71;45.43;100984.09;3376238;29;20172;-71
2021/10/25 06:43:04;;;;;;;3.00;2.30;;;;;;;8.61;45.32;100993.97;3386872;29;20044;-71
2021/10/25 06:46:39;;;;;;;4.43;2.70;;;;;;;8.37;45.65;100984.69;3387088;29;20661;-72
2021/10/25 06:48:21;;;;;;;5.00;2.60;;;;;;;8.36;45.80;100993.63;3387363;29;20075;-70
2021/10/25 06:50:02;;;;;;;4.18;2.80;;;;;;;8.32;46.11;101002.06;3388694;29;20044;-70
2021/10/25 06:51:44;;;;;;;6.45;2.75;;;;;;;8.28;46.07;101007.66;3389198;29;20052;-72
2021/10/25 06:53:26;;;;;;;5.13;2.50;;;;;;;8.27;46.07;101013.13;3386783;29;20048;-71
2021/10/25 06:55:36;;;;;;;3.15;2.40;;;;;;;8.21;46.08;101014.56;3386229;29;20044;-72
2021/10/25 06:57:19;;;;;;;3.47;2.70;;;;;;;8.17;46.23;101015.81;3389334;29;20069;-71
2021/10/25 06:59:03;;;;;;;3.92;2.53;;;;;;;8.21;46.11;101017.22;3386694;29;20058;-70
2021/10/25 07:00:50;;;;;;;3.65;2.25;;;;;;;8.24;46.03;101016.91;3379529;29;20528;-71
2021/10/25 07:02:31;;;;;;;4.45;2.45;;;;;;;8.33;45.88;101025.81;3399927;29;20127;-72
2021/10/25 07:04:19;;;;;;;4.18;2.63;;;;;;;8.36;45.90;101020.19;3390642;29;20051;-72
2021/10/25 07:06:02;;;;;;;5.07;1.95;;;;;;;8.38;45.74;101028.03;3386036;29;20091;-71
2021/10/25 07:07:42;;;;;;;5.10;2.70;;;;;;;8.41;45.83;101028.59;3385999;29;20837;-71
2021/10/25 07:09:23;;;;;;;3.60;1.98;;;;;;;8.45;45.79;101023.84;3389397;29;20052;-70
2021/10/25 07:11:04;;;;;;;4.55;2.33;;;;;;;8.44;45.61;101023.00;3389055;29;20045;-70
2021/10/25 07:12:45;;;;;;;3.22;2.58;;;;;;;8.42;45.73;101027.63;3376270;29;20522;-69
2021/10/25 07:14:34;;;;;;;3.58;2.33;;;;;;;8.38;45.69;101033.34;3397319;29;20051;-73
2021/10/25 07:18:59;;;;;;;2.90;2.45;;;;;;;8.24;45.83;101032.84;3392567;29;20051;-72
2021/10/25 08:01:49;;;;;;;5.38;2.83;;;;;;;8.07;46.23;101039.75;3400638;29;20036;-71
2021/10/25 08:11:34;;;;;;;3.85;2.63;;;;;;;8.91;44.62;101032.66;3382010;29;20495;-71
2021/10/25 08:13:18;;;;;;;7.40;2.65;;;;;;;9.31;44.37;101028.72;3388005;29;20604;-73
2021/10/25 08:15:04;;;;;;;7.05;3.03;;;;;;;9.74;43.72;101021.72;3381470;29;20102;-71
2021/10/25 08:20:22;;;;;;;4.20;2.85;;;;;;;9.89;42.98;101022.81;3386652;29;20055;-70
2021/10/25 08:22:10;;;;;;;3.60;2.90;;;;;;;10.25;42.40;101018.19;3386205;29;20073;-70
2021/10/25 08:23:54;;;;;;;6.82;2.90;;;;;;;10.84;41.55;101018.25;3386497;29;20074;-71
2021/10/25 08:25:53;;;;;;;4.72;2.80;;;;;;;11.63;40.78;101013.28;3385935;29;20582;-72
2021/10/25 08:27:38;;;;;;;5.85;2.65;;;;;;;12.32;39.94;101020.84;3388827;29;20040;-71
2021/10/25 08:29:20;;;;;;;5.55;4.00;;;;;;;13.00;39.23;101019.28;3382762;29;20423;-72
2021/10/25 08:31:05;;;;;;;6.90;2.92;;;;;;;13.57;38.38;101012.69;3369735;29;20560;-72
2021/10/25 08:33:02;;;;;;;3.08;2.67;;;;;;;14.06;37.53;101009.50;3373935;29;20048;-71
2021/10/25 08:41:03;;;;;;;5.05;4.53;;;;;;;15.89;34.56;101006.47;3394781;29;20039;-71
2021/10/25 08:42:47;;;;;;;3.58;2.50;;;;;;;16.18;33.98;101008.09;3378042;29;20140;-72
2021/10/25 08:44:30;;;;;;;5.03;3.05;;;;;;;16.47;33.55;101016.91;3381338;29;20040;-71
2021/10/25 08:46:14;;;;;;;2.53;2.28;;;;;;;16.53;33.34;101019.66;3385055;29;20048;-70
2021/10/25 08:47:57;;;;;;;4.00;2.72;;;;;;;16.62;33.52;101025.69;3384097;29;20486;-71
2021/10/25 08:49:38;;;;;;;5.72;2.67;;;;;;;16.73;32.84;101018.91;3379517;29;20115;-71
2021/10/25 08:51:21;;;;;;;2.72;2.45;;;;;;;16.95;32.77;101025.81;3383951;29;20040;-71
2021/10/25 08:53:03;;;;;;;3.95;2.10;;;;;;;17.19;32.21;101023.56;3382958;29;20071;-71
2021/10/25 08:54:54;;;;;;;5.47;2.65;;;;;;;17.55;31.72;101027.75;3386227;29;20055;-71
2021/10/25 08:56:40;;;;;;;3.53;2.22;;;;;;;17.88;30.84;101028.59;3387367;29;20794;-71
2021/10/25 08:58:29;;;;;;;;;;;;;;;18.41;32.05;101027.63;3397828;29;20031;-69
2021/10/25 09:00:11;;;;;;;6.65;3.08;;;;;;;18.64;30.51;101027.13;3389895;29;20270;-70
2021/10/25 09:02:13;;;;;;;3.53;2.35;;;;;;;18.85;30.02;101027.88;3385164;29;20078;-72
2021/10/25 09:04:22;;;;;;;4.75;2.70;;;;;;;19.14;29.49;101021.88;3386139;29;20036;-71
2021/10/25 09:06:13;;;;;;;3.45;2.15;;;;;;;19.34;29.11;101027.16;3396158;29;20099;-70
2021/10/25 09:07:58;;;;;;;2.60;2.40;;;;;;;19.36;28.54;101024.19;3386089;29;20138;-71
2021/10/25 09:09:45;;;;;;;3.65;2.60;;;;;;;19.25;28.58;101011.41;3385806;29;20040;-69
2021/10/25 09:11:28;;;;;;;7.78;2.53;;;;;;;19.27;28.21;101012.03;3383713;29;20111;-72
2021/10/25 09:13:27;;;;;;;4.13;2.13;;;;;;;19.46;28.21;101013.72;3383136;29;20130;-72
2021/10/25 09:15:09;;;;;;;4.88;2.03;;;;;;;19.65;28.20;101013.81;3402249;29;20050;-71
2021/10/25 09:17:04;;;;;;;2.92;2.20;;;;;;;19.93;27.84;101005.22;3382091;29;20048;-73
2021/10/25 09:19:16;;;;;;;3.17;2.05;;;;;;;20.41;27.00;101016.13;3399702;29;20039;-72
2021/10/25 09:21:05;;;;;;;15.07;2.88;;;;;;;20.57;26.37;101005.75;3386816;29;20048;-74
2021/10/25 09:22:53;;;;;;;2.47;2.08;;;;;;;20.77;26.51;101006.31;3383371;29;20055;-72
2021/10/25 09:24:35;;;;;;;3.40;1.75;;;;;;;21.04;26.62;100997.78;3377957;29;20140;-71
2021/10/25 09:26:24;;;;;;;7.57;4.75;;;;;;;21.29;25.95;101001.16;3360709;29;20575;-75
2021/10/25 09:28:19;;;;;;;6.25;2.25;;;;;;;21.53;25.83;101009.38;3375417;29;20111;-71
2021/10/25 09:30:20;;;;;;;4.28;2.33;;;;;;;21.63;25.96;101006.88;3388512;29;20523;-73
2021/10/25 09:32:08;;;;;;;6.13;1.90;;;;;;;21.51;25.32;100997.94;3397095;29;20039;-72
2021/10/25 09:33:59;;;;;;;1.88;1.60;;;;;;;21.47;25.86;101007.59;3373470;29;20048;-71
2021/10/25 09:36:04;;;;;;;3.95;2.17;;;;;;;21.30;25.60;101008.25;3386778;29;20530;-71
2021/10/25 09:38:00;;;;;;;4.90;1.70;;;;;;;21.02;25.60;100994.50;3386587;29;20405;-71
2021/10/25 09:50:05;;;;;;;8.15;3.10;;;;;;;19.53;26.10;100995.56;3370403;29;20053;-72
2021/10/25 09:51:57;;;;;;;2.25;1.88;;;;;;;19.47;26.24;100985.66;3392690;29;20159;-72
2021/10/25 09:53:46;;;;;;;6.03;1.98;;;;;;;19.51;26.23;100999.53;3384025;29;20135;-73
2021/10/25 09:55:27;;;;;;;2.85;1.95;;;;;;;19.64;25.98;100988.59;3385289;29;20044;-73
2021/10/25 09:59:10;;;;;;;3.55;2.10;;;;;;;20.24;25.93;100996.97;3388868;29;19915;-79
2021/10/25 10:00:51;;;;;;;8.70;2.35;;;;;;;20.56;25.78;100998.69;3387204;29;20179;-77
2021/10/25 10:02:34;;;;;;;4.70;2.60;;;;;;;20.98;25.58;100991.41;3370813;29;20512;-77
2021/10/25 10:04:15;;;;;;;4.75;1.90;;;;;;;21.48;26.76;100998.41;3393546;29;20036;-77
2021/10/25 10:06:24;;;;;;;7.28;2.70;;;;;;;22.04;25.88;100994.22;3384486;29;20443;-76